EZY24YG EGNM-EGAA
Flight info
| Callsign | EZY24YG |
|---|---|
| Flight time | 0h 39m |
| Altitude | 24000 |
| Route | POL Y70 KOLID L70 GUNTU Z196 DIGMA M146 IPSET P6 BELZU |
| Aircraft | A320/M-SDE3FGHIRWY/LB1 |
Departure
| Time | 2026-05-07 11:03 |
|---|---|
| Airport | Leeds Bradford Airport (EGNM) |
Arrival
| Time | 2026-05-07 11:42 |
|---|---|
| Airport | Belfast International Airport (EGAA) |
| Time | Latitude | Longitude | Altitude | Speed | Heading |
|---|---|---|---|---|---|
| 2026-05-07 10:34 | 53.86882 | -1.65690 | 665 ft | 0 kts | 1° |
| 2026-05-07 10:55 | 53.86881 | -1.65690 | 665 ft | 1 kts | 1° |
| 2026-05-07 10:55 | 53.86858 | -1.65691 | 665 ft | 4 kts | 1° |
| 2026-05-07 10:55 | 53.86837 | -1.65692 | 665 ft | 4 kts | 353° |
| 2026-05-07 10:56 | 53.86818 | -1.65677 | 663 ft | 4 kts | 283° |
| 2026-05-07 10:56 | 53.86816 | -1.65635 | 663 ft | 4 kts | 271° |
| 2026-05-07 10:56 | 53.86816 | -1.65606 | 664 ft | 0 kts | 271° |
| 2026-05-07 10:59 | 53.86816 | -1.65607 | 664 ft | 1 kts | 271° |
| 2026-05-07 10:59 | 53.86816 | -1.65646 | 663 ft | 6 kts | 271° |
| 2026-05-07 10:59 | 53.86816 | -1.65735 | 665 ft | 10 kts | 263° |
| 2026-05-07 10:59 | 53.86813 | -1.65876 | 665 ft | 14 kts | 271° |
| 2026-05-07 11:00 | 53.86818 | -1.66062 | 666 ft | 15 kts | 280° |
| 2026-05-07 11:00 | 53.86881 | -1.66188 | 667 ft | 14 kts | 317° |
| 2026-05-07 11:00 | 53.86949 | -1.66293 | 667 ft | 12 kts | 316° |
| 2026-05-07 11:00 | 53.86979 | -1.66379 | 671 ft | 7 kts | 296° |
| 2026-05-07 11:01 | 53.86995 | -1.66502 | 673 ft | 13 kts | 261° |
| 2026-05-07 11:01 | 53.86967 | -1.66586 | 672 ft | 13 kts | 230° |
| 2026-05-07 11:01 | 53.86926 | -1.66573 | 671 ft | 0 kts | 136° |
| 2026-05-07 11:02 | 53.86812 | -1.66398 | 668 ft | 60 kts | 138° |
| 2026-05-07 11:02 | 53.86323 | -1.65650 | 675 ft | 125 kts | 137° |
| 2026-05-07 11:02 | 53.85590 | -1.64516 | 1019 ft | 150 kts | 140° |
| 2026-05-07 11:03 | 53.85065 | -1.63724 | 1590 ft | 149 kts | 140° |
| 2026-05-07 11:03 | 53.84263 | -1.62511 | 2233 ft | 163 kts | 141° |
| 2026-05-07 11:03 | 53.83356 | -1.61150 | 2644 ft | 185 kts | 144° |
| 2026-05-07 11:03 | 53.82133 | -1.60228 | 3038 ft | 205 kts | 174° |
| 2026-05-07 11:04 | 53.80659 | -1.60545 | 3540 ft | 227 kts | 205° |
| 2026-05-07 11:04 | 53.79444 | -1.62369 | 4186 ft | 246 kts | 240° |
| 2026-05-07 11:04 | 53.78998 | -1.65192 | 5150 ft | 254 kts | 262° |
| 2026-05-07 11:04 | 53.78750 | -1.68159 | 6200 ft | 256 kts | 260° |
| 2026-05-07 11:05 | 53.78455 | -1.71176 | 6819 ft | 263 kts | 259° |
| 2026-05-07 11:05 | 53.78141 | -1.74222 | 7016 ft | 263 kts | 259° |
| 2026-05-07 11:05 | 53.77820 | -1.77263 | 7077 ft | 263 kts | 258° |
| 2026-05-07 11:05 | 53.77499 | -1.80303 | 7081 ft | 263 kts | 258° |
| 2026-05-07 11:06 | 53.77180 | -1.83338 | 7082 ft | 262 kts | 258° |
| 2026-05-07 11:06 | 53.76865 | -1.86369 | 7081 ft | 262 kts | 259° |
| 2026-05-07 11:06 | 53.76549 | -1.89404 | 7067 ft | 262 kts | 259° |
| 2026-05-07 11:06 | 53.76235 | -1.92439 | 7067 ft | 262 kts | 259° |
| 2026-05-07 11:07 | 53.75923 | -1.95477 | 7072 ft | 263 kts | 259° |
| 2026-05-07 11:07 | 53.75607 | -1.98515 | 7067 ft | 263 kts | 258° |
| 2026-05-07 11:07 | 53.75289 | -2.01553 | 7067 ft | 262 kts | 258° |
| 2026-05-07 11:07 | 53.74970 | -2.04607 | 7359 ft | 266 kts | 259° |
| 2026-05-07 11:08 | 53.74650 | -2.07687 | 8397 ft | 267 kts | 258° |
| 2026-05-07 11:08 | 53.74234 | -2.10763 | 9352 ft | 271 kts | 249° |
| 2026-05-07 11:08 | 53.73489 | -2.13695 | 10272 ft | 274 kts | 244° |
| 2026-05-07 11:08 | 53.72698 | -2.16655 | 11125 ft | 278 kts | 244° |
| 2026-05-07 11:09 | 53.71897 | -2.19655 | 11984 ft | 282 kts | 244° |
| 2026-05-07 11:09 | 53.71083 | -2.22698 | 12820 ft | 287 kts | 244° |
| 2026-05-07 11:09 | 53.70257 | -2.25783 | 13699 ft | 290 kts | 244° |
| 2026-05-07 11:09 | 53.69418 | -2.28910 | 14458 ft | 294 kts | 244° |
| 2026-05-07 11:10 | 53.68569 | -2.32076 | 15201 ft | 298 kts | 244° |
| 2026-05-07 11:10 | 53.67707 | -2.35289 | 15945 ft | 302 kts | 244° |
| 2026-05-07 11:10 | 53.66837 | -2.38529 | 16695 ft | 305 kts | 244° |
| 2026-05-07 11:10 | 53.65955 | -2.41807 | 17444 ft | 309 kts | 244° |
| 2026-05-07 11:11 | 53.65060 | -2.45121 | 18180 ft | 312 kts | 244° |
| 2026-05-07 11:11 | 53.64152 | -2.48474 | 18820 ft | 317 kts | 244° |
| 2026-05-07 11:11 | 53.63232 | -2.51871 | 19434 ft | 320 kts | 244° |
| 2026-05-07 11:11 | 53.62308 | -2.55313 | 20051 ft | 324 kts | 244° |
| 2026-05-07 11:12 | 53.61417 | -2.58823 | 20677 ft | 328 kts | 246° |
| 2026-05-07 11:12 | 53.60544 | -2.62398 | 21290 ft | 332 kts | 246° |
| 2026-05-07 11:12 | 53.59673 | -2.66019 | 21870 ft | 336 kts | 246° |
| 2026-05-07 11:12 | 53.58795 | -2.69688 | 22449 ft | 340 kts | 245° |
| 2026-05-07 11:13 | 53.58042 | -2.73497 | 23051 ft | 346 kts | 254° |
| 2026-05-07 11:13 | 53.57657 | -2.77528 | 23618 ft | 353 kts | 263° |
| 2026-05-07 11:13 | 53.57671 | -2.81714 | 23950 ft | 365 kts | 272° |
| 2026-05-07 11:13 | 53.57889 | -2.86057 | 24041 ft | 380 kts | 272° |
| 2026-05-07 11:14 | 53.58115 | -2.90530 | 24057 ft | 386 kts | 272° |
| 2026-05-07 11:14 | 53.58342 | -2.95044 | 24057 ft | 388 kts | 272° |
| 2026-05-07 11:14 | 53.58568 | -2.99566 | 24057 ft | 388 kts | 272° |
| 2026-05-07 11:14 | 53.58793 | -3.04094 | 24059 ft | 388 kts | 272° |
| 2026-05-07 11:15 | 53.59012 | -3.08622 | 24057 ft | 388 kts | 272° |
| 2026-05-07 11:15 | 53.59226 | -3.13150 | 24062 ft | 388 kts | 272° |
| 2026-05-07 11:15 | 53.59526 | -3.17664 | 24055 ft | 389 kts | 279° |
| 2026-05-07 11:15 | 53.60075 | -3.22126 | 24056 ft | 390 kts | 279° |
| 2026-05-07 11:16 | 53.60629 | -3.26592 | 24054 ft | 389 kts | 279° |
| 2026-05-07 11:16 | 53.61182 | -3.31056 | 24051 ft | 389 kts | 279° |
| 2026-05-07 11:16 | 53.61734 | -3.35518 | 24048 ft | 389 kts | 279° |
| 2026-05-07 11:16 | 53.62284 | -3.39985 | 24046 ft | 389 kts | 279° |
| 2026-05-07 11:17 | 53.62832 | -3.44453 | 24046 ft | 389 kts | 279° |
| 2026-05-07 11:17 | 53.63368 | -3.48860 | 24044 ft | 390 kts | 279° |
| 2026-05-07 11:17 | 53.63909 | -3.53329 | 24036 ft | 390 kts | 279° |
| 2026-05-07 11:17 | 53.64466 | -3.57860 | 24033 ft | 390 kts | 282° |
| 2026-05-07 11:18 | 53.65326 | -3.62205 | 24026 ft | 392 kts | 292° |
| 2026-05-07 11:18 | 53.66622 | -3.66188 | 24032 ft | 395 kts | 302° |
| 2026-05-07 11:18 | 53.68212 | -3.69966 | 24039 ft | 395 kts | 303° |
| 2026-05-07 11:18 | 53.69802 | -3.73743 | 24042 ft | 395 kts | 303° |
| 2026-05-07 11:19 | 53.71384 | -3.77532 | 24034 ft | 395 kts | 303° |
| 2026-05-07 11:19 | 53.72958 | -3.81323 | 24034 ft | 394 kts | 303° |
| 2026-05-07 11:19 | 53.74532 | -3.85120 | 24033 ft | 394 kts | 303° |
| 2026-05-07 11:19 | 53.76104 | -3.88910 | 24032 ft | 394 kts | 303° |
| 2026-05-07 11:20 | 53.77677 | -3.92705 | 24034 ft | 394 kts | 303° |
| 2026-05-07 11:20 | 53.79247 | -3.96502 | 24030 ft | 394 kts | 303° |
| 2026-05-07 11:20 | 53.80814 | -4.00299 | 24026 ft | 394 kts | 303° |
| 2026-05-07 11:20 | 53.82379 | -4.04102 | 24025 ft | 394 kts | 303° |
| 2026-05-07 11:21 | 53.83942 | -4.07908 | 24026 ft | 394 kts | 303° |
| 2026-05-07 11:21 | 53.85505 | -4.11713 | 24024 ft | 393 kts | 303° |
| 2026-05-07 11:21 | 53.87067 | -4.15515 | 24022 ft | 393 kts | 303° |
| 2026-05-07 11:21 | 53.88631 | -4.19319 | 24022 ft | 393 kts | 303° |
| 2026-05-07 11:22 | 53.90194 | -4.23127 | 24013 ft | 393 kts | 302° |
| 2026-05-07 11:22 | 53.91753 | -4.26941 | 24007 ft | 394 kts | 302° |
| 2026-05-07 11:22 | 53.93308 | -4.30761 | 24012 ft | 393 kts | 302° |
| 2026-05-07 11:22 | 53.94860 | -4.34584 | 24013 ft | 393 kts | 302° |
| 2026-05-07 11:23 | 53.96412 | -4.38404 | 24012 ft | 393 kts | 302° |
| 2026-05-07 11:23 | 53.97962 | -4.42218 | 24008 ft | 392 kts | 302° |
| 2026-05-07 11:23 | 53.99511 | -4.46036 | 24006 ft | 392 kts | 302° |
| 2026-05-07 11:23 | 54.01059 | -4.49851 | 24004 ft | 392 kts | 302° |
| 2026-05-07 11:24 | 54.02757 | -4.53494 | 24005 ft | 397 kts | 310° |
| 2026-05-07 11:24 | 54.04655 | -4.57006 | 24003 ft | 407 kts | 310° |
| 2026-05-07 11:24 | 54.06559 | -4.60534 | 23991 ft | 398 kts | 310° |
| 2026-05-07 11:24 | 54.08401 | -4.63939 | 23795 ft | 385 kts | 310° |
| 2026-05-07 11:25 | 54.10201 | -4.67273 | 23379 ft | 380 kts | 310° |
| 2026-05-07 11:25 | 54.11979 | -4.70582 | 22879 ft | 377 kts | 310° |
| 2026-05-07 11:25 | 54.13737 | -4.73864 | 22410 ft | 373 kts | 310° |
| 2026-05-07 11:25 | 54.15479 | -4.77116 | 21964 ft | 370 kts | 310° |
| 2026-05-07 11:26 | 54.17202 | -4.80344 | 21507 ft | 366 kts | 309° |
| 2026-05-07 11:26 | 54.18909 | -4.83553 | 21064 ft | 363 kts | 309° |
| 2026-05-07 11:26 | 54.20598 | -4.86734 | 20622 ft | 360 kts | 309° |
| 2026-05-07 11:26 | 54.22275 | -4.89892 | 20201 ft | 357 kts | 309° |
| 2026-05-07 11:27 | 54.23937 | -4.93019 | 19782 ft | 354 kts | 309° |
| 2026-05-07 11:27 | 54.25587 | -4.96129 | 19370 ft | 351 kts | 309° |
| 2026-05-07 11:27 | 54.27198 | -4.99172 | 18971 ft | 349 kts | 309° |
| 2026-05-07 11:27 | 54.28818 | -5.02233 | 18567 ft | 346 kts | 309° |
| 2026-05-07 11:28 | 54.30427 | -5.05273 | 18160 ft | 343 kts | 309° |
| 2026-05-07 11:28 | 54.32021 | -5.08294 | 17708 ft | 341 kts | 309° |
| 2026-05-07 11:28 | 54.33603 | -5.11296 | 17269 ft | 338 kts | 309° |
| 2026-05-07 11:28 | 54.35172 | -5.14278 | 16840 ft | 336 kts | 309° |
| 2026-05-07 11:29 | 54.36734 | -5.17244 | 16419 ft | 334 kts | 309° |
| 2026-05-07 11:29 | 54.38288 | -5.20189 | 16032 ft | 331 kts | 309° |
| 2026-05-07 11:29 | 54.39813 | -5.23081 | 15810 ft | 324 kts | 308° |
| 2026-05-07 11:29 | 54.41322 | -5.25955 | 15433 ft | 323 kts | 308° |
| 2026-05-07 11:30 | 54.42819 | -5.28817 | 15060 ft | 322 kts | 308° |
| 2026-05-07 11:30 | 54.44311 | -5.31675 | 14688 ft | 320 kts | 308° |
| 2026-05-07 11:30 | 54.45804 | -5.34520 | 14201 ft | 323 kts | 309° |
| 2026-05-07 11:30 | 54.47355 | -5.37370 | 13591 ft | 330 kts | 310° |
| 2026-05-07 11:31 | 54.48957 | -5.40236 | 12899 ft | 335 kts | 310° |
| 2026-05-07 11:31 | 54.50592 | -5.43124 | 12239 ft | 339 kts | 311° |
| 2026-05-07 11:31 | 54.52181 | -5.46120 | 11594 ft | 338 kts | 304° |
| 2026-05-07 11:31 | 54.53568 | -5.49332 | 10950 ft | 329 kts | 303° |
| 2026-05-07 11:32 | 54.56176 | -5.55436 | 10032 ft | 298 kts | 303° |
| 2026-05-07 11:32 | 54.57549 | -5.57980 | 9952 ft | 290 kts | 322° |
| 2026-05-07 11:32 | 54.59295 | -5.59747 | 9974 ft | 292 kts | 328° |
| 2026-05-07 11:33 | 54.61097 | -5.61379 | 9977 ft | 293 kts | 329° |
| 2026-05-07 11:33 | 54.62899 | -5.62992 | 9837 ft | 293 kts | 328° |
| 2026-05-07 11:33 | 54.64756 | -5.64644 | 8933 ft | 307 kts | 329° |
| 2026-05-07 11:33 | 54.66694 | -5.66371 | 8027 ft | 320 kts | 329° |
| 2026-05-07 11:34 | 54.68711 | -5.68180 | 7077 ft | 331 kts | 329° |
| 2026-05-07 11:34 | 54.70749 | -5.70010 | 6122 ft | 328 kts | 329° |
| 2026-05-07 11:34 | 54.72762 | -5.71820 | 5154 ft | 324 kts | 329° |
| 2026-05-07 11:34 | 54.74744 | -5.73604 | 4359 ft | 315 kts | 329° |
| 2026-05-07 11:35 | 54.76607 | -5.75269 | 4113 ft | 290 kts | 329° |
| 2026-05-07 11:35 | 54.78305 | -5.76920 | 4018 ft | 270 kts | 316° |
| 2026-05-07 11:35 | 54.79428 | -5.79382 | 4032 ft | 257 kts | 288° |
| 2026-05-07 11:35 | 54.79695 | -5.82344 | 4034 ft | 247 kts | 258° |
| 2026-05-07 11:36 | 54.79091 | -5.85025 | 3810 ft | 236 kts | 229° |
| 2026-05-07 11:36 | 54.77853 | -5.86803 | 3196 ft | 228 kts | 215° |
| 2026-05-07 11:36 | 54.76617 | -5.88314 | 3035 ft | 206 kts | 215° |
| 2026-05-07 11:36 | 54.75551 | -5.89620 | 3032 ft | 183 kts | 216° |
| 2026-05-07 11:37 | 54.74571 | -5.90849 | 3032 ft | 167 kts | 220° |
| 2026-05-07 11:37 | 54.73824 | -5.92289 | 3025 ft | 155 kts | 233° |
| 2026-05-07 11:37 | 54.73266 | -5.93854 | 2998 ft | 150 kts | 238° |
| 2026-05-07 11:37 | 54.72782 | -5.95446 | 2825 ft | 149 kts | 239° |
| 2026-05-07 11:38 | 54.72327 | -5.97059 | 2659 ft | 149 kts | 240° |
| 2026-05-07 11:38 | 54.71883 | -5.98683 | 2580 ft | 150 kts | 241° |
| 2026-05-07 11:38 | 54.71441 | -6.00326 | 2558 ft | 149 kts | 241° |
| 2026-05-07 11:38 | 54.71004 | -6.01956 | 2486 ft | 149 kts | 241° |
| 2026-05-07 11:39 | 54.70573 | -6.03567 | 2337 ft | 148 kts | 241° |
| 2026-05-07 11:39 | 54.70144 | -6.05176 | 2131 ft | 147 kts | 241° |
| 2026-05-07 11:39 | 54.69735 | -6.06708 | 1922 ft | 134 kts | 240° |
| 2026-05-07 11:39 | 54.69353 | -6.08139 | 1751 ft | 130 kts | 241° |
| 2026-05-07 11:40 | 54.68979 | -6.09536 | 1581 ft | 126 kts | 240° |
| 2026-05-07 11:40 | 54.68609 | -6.10915 | 1400 ft | 127 kts | 242° |
| 2026-05-07 11:40 | 54.68240 | -6.12294 | 1228 ft | 125 kts | 240° |
| 2026-05-07 11:40 | 54.67871 | -6.13671 | 1054 ft | 126 kts | 240° |
| 2026-05-07 11:41 | 54.67506 | -6.15034 | 889 ft | 125 kts | 240° |
| 2026-05-07 11:41 | 54.67144 | -6.16382 | 722 ft | 125 kts | 240° |
| 2026-05-07 11:41 | 54.66780 | -6.17740 | 563 ft | 127 kts | 242° |
| 2026-05-07 11:41 | 54.66409 | -6.19123 | 368 ft | 127 kts | 242° |
| 2026-05-07 11:42 | 54.66052 | -6.20464 | 276 ft | 114 kts | 241° |
| 2026-05-07 11:42 | 54.65768 | -6.21500 | 272 ft | 79 kts | 244° |
| 2026-05-07 11:42 | 54.65591 | -6.22157 | 277 ft | 46 kts | 245° |
| 2026-05-07 11:42 | 54.65489 | -6.22552 | 272 ft | 29 kts | 251° |
| 2026-05-07 11:43 | 54.65576 | -6.22744 | 272 ft | 14 kts | 340° |
| 2026-05-07 11:43 | 54.65668 | -6.22793 | 272 ft | 13 kts | 349° |
| 2026-05-07 11:43 | 54.65742 | -6.22735 | 272 ft | 12 kts | 65° |
| 2026-05-07 11:43 | 54.65750 | -6.22605 | 272 ft | 10 kts | 85° |
| 2026-05-07 11:44 | 54.65756 | -6.22484 | 272 ft | 10 kts | 85° |
| 2026-05-07 11:44 | 54.65762 | -6.22370 | 272 ft | 9 kts | 84° |
| 2026-05-07 11:44 | 54.65770 | -6.22264 | 272 ft | 9 kts | 81° |
| 2026-05-07 11:44 | 54.65781 | -6.22167 | 275 ft | 8 kts | 77° |
| 2026-05-07 11:45 | 54.65798 | -6.22081 | 272 ft | 7 kts | 67° |
| 2026-05-07 11:45 | 54.65818 | -6.22004 | 272 ft | 7 kts | 65° |
| 2026-05-07 11:45 | 54.65838 | -6.21932 | 272 ft | 7 kts | 65° |
| 2026-05-07 11:45 | 54.65865 | -6.21831 | 272 ft | 11 kts | 65° |
| 2026-05-07 11:46 | 54.65901 | -6.21697 | 275 ft | 13 kts | 65° |
| 2026-05-07 11:46 | 54.65938 | -6.21562 | 272 ft | 12 kts | 65° |
| 2026-05-07 11:46 | 54.65972 | -6.21435 | 275 ft | 11 kts | 65° |
| 2026-05-07 11:46 | 54.66004 | -6.21316 | 272 ft | 11 kts | 65° |
| 2026-05-07 11:47 | 54.66025 | -6.21242 | 272 ft | 10 kts | 57° |
| 2026-05-07 11:47 | 54.66083 | -6.21222 | 272 ft | 9 kts | 339° |
| 2026-05-07 11:47 | 54.66134 | -6.21267 | 272 ft | 8 kts | 334° |
| 2026-05-07 11:47 | 54.66144 | -6.21276 | 276 ft | 0 kts | 334° |
| 2026-05-07 11:48 | 54.66150 | -6.21282 | 274 ft | 2 kts | 333° |
| 2026-05-07 11:48 | 54.66161 | -6.21306 | 272 ft | 2 kts | 287° |
| 2026-05-07 11:48 | 54.66155 | -6.21342 | 272 ft | 4 kts | 249° |
| 2026-05-07 11:48 | 54.66148 | -6.21372 | 272 ft | 2 kts | 246° |
| 2026-05-07 11:49 | 54.66144 | -6.21385 | 272 ft | 0 kts | 245° |